createdAt,value
2023-05-19T00:01:39.515Z,100403.25
2023-05-19T00:04:07.687Z,100422.38
2023-05-19T00:06:36.429Z,100418.84
2023-05-19T00:09:07.207Z,100410.06
2023-05-19T00:11:36.706Z,100427.50
2023-05-19T00:14:06.631Z,100412.53
2023-05-19T00:16:35.114Z,100436.91
2023-05-19T00:19:04.691Z,100432.53
2023-05-19T00:21:32.976Z,100440.22
2023-05-19T00:24:00.708Z,100443.53
2023-05-19T00:26:28.485Z,100432.00
2023-05-19T00:29:02.408Z,100449.50
2023-05-19T00:31:31.800Z,100450.31
2023-05-19T00:33:59.734Z,100448.41
2023-05-19T00:36:27.371Z,100457.84
2023-05-19T00:38:57.312Z,100432.28
2023-05-19T00:41:25.042Z,100451.50
2023-05-19T00:43:52.727Z,100447.81
2023-05-19T00:46:20.498Z,100449.53
2023-05-19T00:48:48.990Z,100445.91
2023-05-19T00:51:17.365Z,100446.66
2023-05-19T00:53:49.475Z,100454.53
2023-05-19T00:56:18.505Z,100462.34
2023-05-19T00:58:46.982Z,100451.75
2023-05-19T01:01:17.289Z,100460.47
2023-05-19T01:03:49.519Z,100461.34
2023-05-19T01:06:19.329Z,100462.16
2023-05-19T01:08:47.477Z,100461.25
2023-05-19T01:11:15.102Z,100450.63
2023-05-19T01:13:44.120Z,100470.66
2023-05-19T01:16:59.657Z,100452.50
2023-05-19T01:19:54.143Z,100454.16
2023-05-19T01:22:43.166Z,100468.94
2023-05-19T01:25:42.644Z,100471.38
2023-05-19T01:28:24.624Z,100476.38
2023-05-19T01:30:54.846Z,100481.38
2023-05-19T01:33:23.878Z,100480.41
2023-05-19T01:35:53.493Z,100485.47
2023-05-19T01:38:21.218Z,100476.44
2023-05-19T01:40:50.355Z,100491.13
2023-05-19T01:43:24.246Z,100495.25
2023-05-19T01:45:53.282Z,100492.44
2023-05-19T01:48:23.423Z,100491.44
2023-05-19T01:50:51.574Z,100501.63
2023-05-19T01:53:19.274Z,100499.66
2023-05-19T01:55:51.158Z,100494.09
2023-05-19T01:58:39.179Z,100506.34
2023-05-19T02:01:31.143Z,100519.00
2023-05-19T02:04:09.018Z,100516.06
2023-05-19T02:07:01.820Z,100520.22
2023-05-19T02:09:46.229Z,100525.03
2023-05-19T02:12:26.061Z,100518.28
2023-05-19T02:15:05.241Z,100531.19
2023-05-19T02:17:40.342Z,100528.03
2023-05-19T02:20:10.010Z,100530.22
2023-05-19T02:22:37.699Z,100531.91
2023-05-19T02:25:05.714Z,100531.34
2023-05-19T02:27:35.054Z,100525.84
2023-05-19T02:30:04.417Z,100536.84
2023-05-19T02:32:33.607Z,100535.66
2023-05-19T02:35:01.268Z,100552.09
2023-05-19T02:37:31.271Z,100549.31
2023-05-19T02:39:58.956Z,100561.38
2023-05-19T02:42:26.502Z,100550.03
2023-05-19T02:44:54.932Z,100555.09
2023-05-19T02:47:22.930Z,100542.72
2023-05-19T02:49:50.501Z,100559.31
2023-05-19T02:52:18.165Z,100555.06
2023-05-19T02:54:45.855Z,100553.31
2023-05-19T02:57:13.473Z,100546.22
2023-05-19T02:59:41.221Z,100561.06
2023-05-19T03:02:08.898Z,100551.28
2023-05-19T03:04:41.839Z,100555.72
2023-05-19T03:07:10.668Z,100556.06
2023-05-19T03:09:38.286Z,100563.13
2023-05-19T03:12:07.722Z,100564.00
2023-05-19T03:14:37.827Z,100558.91
2023-05-19T03:17:08.140Z,100564.13
2023-05-19T03:19:36.258Z,100568.47
2023-05-19T03:22:03.934Z,100574.69
2023-05-19T03:24:32.831Z,100556.09
2023-05-19T03:27:00.765Z,100582.25
2023-05-19T03:29:28.556Z,100565.66
2023-05-19T03:31:56.225Z,100584.63
2023-05-19T03:34:23.830Z,100580.19
2023-05-19T03:36:51.924Z,100590.41
2023-05-19T03:39:20.686Z,100594.81
2023-05-19T03:41:49.940Z,100584.22
2023-05-19T03:44:17.547Z,100594.56
2023-05-19T03:46:45.570Z,100597.94
2023-05-19T03:49:31.620Z,100591.00
2023-05-19T03:52:05.257Z,100585.56
2023-05-19T03:54:53.187Z,100588.34
2023-05-19T03:57:20.963Z,100588.94
2023-05-19T03:59:48.855Z,100607.28
2023-05-19T04:02:16.822Z,100614.81
2023-05-19T04:04:44.827Z,100597.94
2023-05-19T04:07:12.751Z,100608.38
2023-05-19T04:09:40.401Z,100607.16
2023-05-19T04:12:08.385Z,100609.72
2023-05-19T04:14:36.074Z,100593.84
2023-05-19T04:17:04.770Z,100602.94
2023-05-19T04:19:32.492Z,100607.56
2023-05-19T04:22:00.040Z,100615.69
2023-05-19T04:24:27.668Z,100616.53
2023-05-19T04:26:56.311Z,100617.41
2023-05-19T04:29:24.356Z,100623.72
2023-05-19T04:31:52.842Z,100606.91
2023-05-19T04:34:21.164Z,100615.75
2023-05-19T04:36:50.974Z,100618.41
2023-05-19T04:39:21.763Z,100602.41
2023-05-19T04:41:49.849Z,100623.34
2023-05-19T04:44:18.550Z,100611.13
2023-05-19T04:46:50.137Z,100619.97
2023-05-19T04:49:19.534Z,100632.84
2023-05-19T04:51:50.415Z,100626.69
2023-05-19T04:54:21.929Z,100619.69
2023-05-19T04:56:49.730Z,100632.06
2023-05-19T04:59:18.174Z,100625.38
2023-05-19T05:01:45.799Z,100612.28
2023-05-19T05:04:14.733Z,100611.41
2023-05-19T05:06:47.871Z,100637.47
2023-05-19T05:09:17.245Z,100630.50
2023-05-19T05:11:45.593Z,100618.03
2023-05-19T05:14:13.546Z,100637.38
2023-05-19T05:16:43.639Z,100640.78
2023-05-19T05:19:15.721Z,100633.72
2023-05-19T05:21:43.869Z,100635.59
2023-05-19T05:24:12.218Z,100636.22
2023-05-19T05:26:43.020Z,100643.28
2023-05-19T05:29:10.779Z,100646.63
2023-05-19T05:31:38.828Z,100649.22
2023-05-19T05:34:06.998Z,100653.41
2023-05-19T05:36:35.248Z,100638.41
2023-05-19T05:39:04.625Z,100648.84
2023-05-19T05:41:35.534Z,100640.84
2023-05-19T05:44:09.809Z,100642.78
2023-05-19T05:46:39.992Z,100644.50
2023-05-19T05:49:08.532Z,100654.94
2023-05-19T05:51:36.759Z,100662.78
2023-05-19T05:54:07.169Z,100668.06
2023-05-19T05:56:39.234Z,100651.53
2023-05-19T05:59:09.027Z,100659.59
2023-05-19T06:01:36.886Z,100656.97
2023-05-19T06:04:06.994Z,100648.34
2023-05-19T06:06:36.143Z,100668.50
2023-05-19T06:09:04.713Z,100665.81
2023-05-19T06:11:33.226Z,100655.50
2023-05-19T06:14:01.172Z,100655.59
2023-05-19T06:16:51.481Z,100635.72
2023-05-19T06:19:22.445Z,100663.81
2023-05-19T06:21:50.108Z,100669.31
2023-05-19T06:24:17.745Z,100662.47
2023-05-19T06:26:45.312Z,100652.22
2023-05-19T06:29:12.903Z,100656.34
2023-05-19T06:31:41.107Z,100656.78
2023-05-19T06:34:17.708Z,100648.19
2023-05-19T06:36:47.569Z,100663.44
2023-05-19T06:39:16.334Z,100653.31
2023-05-19T06:41:44.370Z,100668.56
2023-05-19T06:44:24.287Z,100668.03
2023-05-19T06:46:51.970Z,100667.63
2023-05-19T06:49:20.744Z,100664.66
2023-05-19T06:51:49.623Z,100658.19
2023-05-19T06:54:17.346Z,100655.88
2023-05-19T06:56:45.361Z,100639.38
2023-05-19T06:59:14.160Z,100658.41
2023-05-19T07:01:41.767Z,100662.97
2023-05-19T07:04:09.435Z,100653.84
2023-05-19T07:06:37.290Z,100657.66
2023-05-19T07:09:05.879Z,100663.13
2023-05-19T07:11:34.121Z,100666.72
2023-05-19T07:14:02.760Z,100668.56
2023-05-19T07:16:32.738Z,100660.75
2023-05-19T07:19:00.840Z,100653.63
2023-05-19T07:21:28.409Z,100663.47
2023-05-19T07:23:56.130Z,100651.28
2023-05-19T07:26:23.872Z,100656.56
2023-05-19T07:28:52.026Z,100663.75
2023-05-19T07:31:19.671Z,100653.97
2023-05-19T07:33:47.417Z,100664.50
2023-05-19T07:36:15.008Z,100666.00
2023-05-19T07:38:42.735Z,100654.41
2023-05-19T07:41:11.095Z,100661.22
2023-05-19T07:43:38.838Z,100660.94
2023-05-19T07:46:16.896Z,100676.38
2023-05-19T07:48:44.803Z,100659.13
2023-05-19T07:51:12.922Z,100664.88
2023-05-19T07:53:40.620Z,100671.63
2023-05-19T07:56:08.185Z,100667.28
2023-05-19T07:58:35.785Z,100651.22
2023-05-19T08:01:03.521Z,100659.50
2023-05-19T08:03:32.219Z,100668.03
2023-05-19T08:06:00.509Z,100653.97
2023-05-19T08:08:28.335Z,100666.03
2023-05-19T08:10:56.138Z,100673.69
2023-05-19T08:13:23.854Z,100655.78
2023-05-19T08:15:51.571Z,100656.78
2023-05-19T08:18:20.246Z,100657.72
2023-05-19T08:20:47.932Z,100672.03
2023-05-19T08:23:15.518Z,100655.97
2023-05-19T08:25:43.575Z,100657.75
2023-05-19T08:28:12.474Z,100647.31
2023-05-19T08:30:40.122Z,100665.53
2023-05-19T08:33:08.543Z,100657.75
2023-05-19T08:35:36.164Z,100648.03
2023-05-19T08:38:03.766Z,100654.78
2023-05-19T08:40:33.732Z,100664.69
2023-05-19T08:43:03.396Z,100657.06
2023-05-19T08:45:34.781Z,100653.56
2023-05-19T08:48:03.817Z,100662.44
2023-05-19T08:50:36.499Z,100649.84
2023-05-19T08:53:34.014Z,100644.16
2023-05-19T08:56:11.478Z,100642.09
2023-05-19T08:58:41.405Z,100647.09
2023-05-19T09:01:09.852Z,100645.69
2023-05-19T09:03:38.401Z,100634.25
2023-05-19T09:06:12.578Z,100621.56
2023-05-19T09:08:42.414Z,100634.13
2023-05-19T09:11:11.359Z,100631.31
2023-05-19T09:13:39.497Z,100634.94
2023-05-19T09:16:08.386Z,100636.03
2023-05-19T09:18:39.439Z,100629.31
2023-05-19T09:21:07.579Z,100638.44
2023-05-19T09:23:35.288Z,100639.59
2023-05-19T09:26:05.283Z,100627.81
2023-05-19T09:28:34.576Z,100624.19
2023-05-19T09:31:07.483Z,100622.63
2023-05-19T09:33:36.964Z,100616.03
2023-05-19T09:36:06.689Z,100628.31
2023-05-19T09:38:36.465Z,100620.78
2023-05-19T09:41:06.268Z,100628.75
2023-05-19T09:43:35.164Z,100622.88
2023-05-19T09:46:13.787Z,100614.53
2023-05-19T09:48:42.661Z,100615.72
2023-05-19T09:51:11.048Z,100609.44
2023-05-19T09:53:39.380Z,100608.97
2023-05-19T09:56:09.971Z,100613.69
2023-05-19T09:58:39.156Z,100608.88
2023-05-19T10:01:08.703Z,100607.59
2023-05-19T10:03:37.189Z,100610.41
2023-05-19T10:06:07.494Z,100607.59
2023-05-19T10:08:36.106Z,100610.44
2023-05-19T10:11:05.126Z,100606.34
2023-05-19T10:13:38.719Z,100611.19
2023-05-19T10:16:08.778Z,100608.06
2023-05-19T10:18:39.609Z,100605.97
2023-05-19T10:21:09.341Z,100600.09
2023-05-19T10:23:37.080Z,100601.47
2023-05-19T10:26:06.981Z,100602.75
2023-05-19T10:28:40.827Z,100609.84
2023-05-19T10:31:11.725Z,100600.06
2023-05-19T10:34:05.308Z,100606.53
2023-05-19T10:36:45.054Z,100611.75
2023-05-19T10:39:16.756Z,100594.13
2023-05-19T10:41:49.371Z,100602.38
2023-05-19T10:44:41.155Z,100610.09
2023-05-19T10:47:12.272Z,100614.88
2023-05-19T10:49:40.539Z,100601.00
2023-05-19T10:52:29.894Z,100614.56
2023-05-19T10:54:58.536Z,100611.66
2023-05-19T10:57:32.238Z,100622.38
2023-05-19T11:00:11.228Z,100612.91
2023-05-19T11:02:41.457Z,100606.94
2023-05-19T11:05:18.645Z,100627.94
2023-05-19T11:08:06.264Z,100611.13
2023-05-19T11:10:34.646Z,100613.06
2023-05-19T11:13:06.353Z,100592.94
2023-05-19T11:15:37.561Z,100609.34
2023-05-19T11:18:05.425Z,100598.78
2023-05-19T11:20:35.130Z,100606.56
2023-05-19T11:23:10.814Z,100607.38
2023-05-19T11:25:48.275Z,100598.59
2023-05-19T11:28:20.862Z,100603.03
2023-05-19T11:30:52.510Z,100604.81
2023-05-19T11:33:21.739Z,100599.56
2023-05-19T11:35:51.582Z,100606.47
2023-05-19T11:38:20.306Z,100606.44
2023-05-19T11:40:50.074Z,100603.66
2023-05-19T11:43:17.768Z,100599.06
2023-05-19T11:45:46.220Z,100605.06
2023-05-19T11:48:16.174Z,100592.81
2023-05-19T11:50:44.299Z,100604.13
2023-05-19T11:53:16.781Z,100592.72
2023-05-19T11:55:48.393Z,100614.41
2023-05-19T11:58:17.083Z,100619.53
2023-05-19T12:00:48.338Z,100616.78
2023-05-19T12:03:22.209Z,100611.28
2023-05-19T12:05:50.248Z,100620.03
2023-05-19T12:08:18.976Z,100616.53
2023-05-19T12:10:51.115Z,100604.50
2023-05-19T12:13:19.717Z,100608.19
2023-05-19T12:15:47.498Z,100604.81
2023-05-19T12:18:15.122Z,100604.16
2023-05-19T12:20:43.548Z,100614.69
2023-05-19T12:23:12.217Z,100604.44
2023-05-19T12:25:40.271Z,100611.59
2023-05-19T12:28:07.985Z,100621.31
2023-05-19T12:30:35.992Z,100608.38
2023-05-19T12:33:04.424Z,100628.50
2023-05-19T12:35:34.958Z,100621.50
2023-05-19T12:38:04.438Z,100625.91
2023-05-19T12:40:34.286Z,100629.56
2023-05-19T12:43:02.243Z,100613.06
2023-05-19T12:45:35.004Z,100616.56
2023-05-19T12:48:11.679Z,100638.47
2023-05-19T12:50:39.368Z,100632.34
2023-05-19T12:53:11.673Z,100625.41
2023-05-19T12:55:43.478Z,100622.78
2023-05-19T12:58:12.817Z,100635.00
2023-05-19T13:00:46.577Z,100641.09
2023-05-19T13:03:19.779Z,100632.34
2023-05-19T13:05:49.887Z,100623.59
2023-05-19T13:08:20.588Z,100633.16
2023-05-19T13:10:51.796Z,100632.22
2023-05-19T13:13:19.660Z,100632.22
2023-05-19T13:15:50.849Z,100622.53
2023-05-19T13:18:18.638Z,100623.41
2023-05-19T13:20:47.456Z,100631.25
2023-05-19T13:23:17.222Z,100639.06
2023-05-19T13:25:46.448Z,100630.31
2023-05-19T13:28:14.397Z,100639.06
2023-05-19T13:30:44.101Z,100624.22
2023-05-19T13:33:12.114Z,100636.47
2023-05-19T13:35:40.323Z,100638.19
2023-05-19T13:38:13.111Z,100638.16
2023-05-19T13:40:41.095Z,100633.75
2023-05-19T13:43:09.933Z,100631.09
2023-05-19T13:45:38.181Z,100624.06
2023-05-19T13:48:07.479Z,100635.38
2023-05-19T13:50:35.901Z,100636.16
2023-05-19T13:53:04.008Z,100621.25
2023-05-19T13:55:32.276Z,100619.50
2023-05-19T13:57:59.888Z,100622.16
2023-05-19T14:00:27.875Z,100614.22
2023-05-19T14:02:56.155Z,100636.00
2023-05-19T14:05:25.664Z,100631.53
2023-05-19T14:07:53.744Z,100629.72
2023-05-19T14:10:22.985Z,100613.91
2023-05-19T14:13:18.242Z,100633.06
2023-05-19T14:15:38.923Z,100639.16
2023-05-19T14:18:07.466Z,100641.69
2023-05-19T14:20:36.158Z,100638.94
2023-05-19T14:23:04.182Z,100637.13
2023-05-19T14:25:31.847Z,100630.91
2023-05-19T14:27:59.820Z,100626.56
2023-05-19T14:30:27.590Z,100625.59
2023-05-19T14:32:55.336Z,100636.94
2023-05-19T14:35:23.397Z,100614.16
2023-05-19T14:37:51.755Z,100626.41
2023-05-19T14:40:19.603Z,100620.22
2023-05-19T14:42:48.604Z,100630.63
2023-05-19T14:45:16.429Z,100628.81
2023-05-19T14:47:44.151Z,100629.59
2023-05-19T14:50:11.930Z,100626.13
2023-05-19T14:52:39.706Z,100627.75
2023-05-19T14:55:07.775Z,100630.38
2023-05-19T14:57:35.507Z,100612.91
2023-05-19T15:00:03.838Z,100616.34
2023-05-19T15:02:33.940Z,100609.28
2023-05-19T15:05:01.690Z,100621.56
2023-05-19T15:07:32.004Z,100617.16
2023-05-19T15:09:59.877Z,100618.00
2023-05-19T15:12:27.680Z,100618.75
2023-05-19T15:14:55.492Z,100609.06
2023-05-19T15:17:23.314Z,100603.66
2023-05-19T15:19:51.215Z,100616.75
2023-05-19T15:22:19.008Z,100620.94
2023-05-19T15:24:46.643Z,100614.69
2023-05-19T15:27:14.700Z,100605.81
2023-05-19T15:29:42.339Z,100610.91
2023-05-19T15:32:10.160Z,100616.97
2023-05-19T15:34:37.893Z,100605.44
2023-05-19T15:37:05.830Z,100613.28
2023-05-19T15:39:35.058Z,100612.13
2023-05-19T15:42:02.855Z,100605.13
2023-05-19T15:44:30.620Z,100619.06
2023-05-19T15:46:58.274Z,100613.16
2023-05-19T15:49:25.913Z,100619.19
2023-05-19T15:51:53.630Z,100621.69
2023-05-19T15:54:21.233Z,100618.94
2023-05-19T15:56:49.059Z,100625.25
2023-05-19T15:59:16.744Z,100623.31
2023-05-19T16:01:44.571Z,100635.59
2023-05-19T16:04:12.341Z,100644.19
2023-05-19T16:06:40.106Z,100620.47
2023-05-19T16:09:07.742Z,100640.44
2023-05-19T16:11:35.330Z,100645.75
2023-05-19T16:14:02.854Z,100633.47
2023-05-19T16:16:30.664Z,100642.94
2023-05-19T16:18:58.354Z,100647.16
2023-05-19T16:21:26.235Z,100656.66
2023-05-19T16:23:53.827Z,100649.53
2023-05-19T16:26:22.243Z,100642.38
2023-05-19T16:28:50.023Z,100639.63
2023-05-19T16:31:18.082Z,100658.59
2023-05-19T16:33:46.318Z,100653.25
2023-05-19T16:36:15.173Z,100659.06
2023-05-19T16:38:42.899Z,100653.75
2023-05-19T16:41:13.582Z,100668.38
2023-05-19T16:43:41.971Z,100667.47
2023-05-19T16:46:12.351Z,100655.81
2023-05-19T16:48:41.898Z,100667.78
2023-05-19T16:51:09.789Z,100663.28
2023-05-19T16:53:37.426Z,100661.31
2023-05-19T16:56:08.210Z,100685.56
2023-05-19T16:58:36.120Z,100680.16
2023-05-19T17:01:04.229Z,100673.84
2023-05-19T17:03:32.092Z,100684.25
2023-05-19T17:06:00.985Z,100682.31
2023-05-19T17:08:29.011Z,100673.69
2023-05-19T17:10:56.601Z,100691.16
2023-05-19T17:13:24.203Z,100685.53
2023-05-19T17:15:52.825Z,100695.13
2023-05-19T17:18:21.676Z,100678.25
2023-05-19T17:20:49.366Z,100707.91
2023-05-19T17:23:17.087Z,100701.53
2023-05-19T17:25:44.890Z,100696.69
2023-05-19T17:28:12.442Z,100710.38
2023-05-19T17:30:41.420Z,100705.75
2023-05-19T17:33:09.279Z,100713.56
2023-05-19T17:35:37.044Z,100717.38
2023-05-19T17:38:04.893Z,100724.28
2023-05-19T17:40:33.976Z,100727.41
2023-05-19T17:43:01.822Z,100715.72
2023-05-19T17:45:29.442Z,100729.47
2023-05-19T17:47:57.181Z,100744.00
2023-05-19T17:50:24.855Z,100733.16
2023-05-19T17:52:52.950Z,100747.72
2023-05-19T17:55:21.122Z,100747.13
2023-05-19T17:57:49.385Z,100750.41
2023-05-19T18:00:17.362Z,100756.22
2023-05-19T18:02:45.474Z,100754.56
2023-05-19T18:05:13.985Z,100746.69
2023-05-19T18:07:42.480Z,100749.72
2023-05-19T18:10:11.177Z,100749.28
2023-05-19T18:12:40.110Z,100763.28
2023-05-19T18:15:08.077Z,100752.34
2023-05-19T18:17:35.858Z,100761.00
2023-05-19T18:20:03.993Z,100762.44
2023-05-19T18:22:32.861Z,100770.25
2023-05-19T18:25:00.593Z,100779.50
2023-05-19T18:27:28.389Z,100776.00
2023-05-19T18:29:56.185Z,100778.41
2023-05-19T18:32:23.826Z,100780.34
2023-05-19T18:34:52.246Z,100786.34
2023-05-19T18:37:19.935Z,100780.94
2023-05-19T18:39:49.157Z,100787.78
2023-05-19T18:42:17.051Z,100789.53
2023-05-19T18:44:47.921Z,100765.81
2023-05-19T18:47:15.987Z,100789.31
2023-05-19T18:49:43.853Z,100793.44
2023-05-19T18:52:11.614Z,100787.16
2023-05-19T18:54:40.684Z,100786.88
2023-05-19T18:57:10.319Z,100767.19
2023-05-19T18:59:38.178Z,100776.03
2023-05-19T19:02:07.749Z,100780.31
2023-05-19T19:04:35.514Z,100782.44
2023-05-19T19:07:05.900Z,100778.13
2023-05-19T19:09:34.070Z,100790.06
2023-05-19T19:12:01.992Z,100776.72
2023-05-19T19:14:29.642Z,100794.19
2023-05-19T19:16:57.389Z,100795.59
2023-05-19T19:19:25.397Z,100787.34
2023-05-19T19:21:52.986Z,100794.28
2023-05-19T19:24:20.820Z,100792.41
2023-05-19T19:26:48.626Z,100808.03
2023-05-19T19:29:18.447Z,100792.06
2023-05-19T19:31:48.042Z,100812.88
2023-05-19T19:34:15.825Z,100815.31
2023-05-19T19:36:45.032Z,100817.69
2023-05-19T19:39:14.080Z,100824.19
2023-05-19T19:41:42.710Z,100829.16
2023-05-19T19:44:10.436Z,100816.00
2023-05-19T19:46:38.242Z,100806.25
2023-05-19T19:49:06.352Z,100825.28
2023-05-19T19:51:34.323Z,100824.22
2023-05-19T19:54:03.286Z,100830.81
2023-05-19T19:56:30.956Z,100832.41
2023-05-19T19:59:01.424Z,100829.81
2023-05-19T20:01:29.464Z,100831.44
2023-05-19T20:03:57.876Z,100842.41
2023-05-19T20:06:26.113Z,100837.00
2023-05-19T20:08:54.382Z,100838.81
2023-05-19T20:11:23.879Z,100845.25
2023-05-19T20:13:52.378Z,100849.38
2023-05-19T20:16:20.202Z,100831.38
2023-05-19T20:18:48.183Z,100849.19
2023-05-19T20:21:15.811Z,100846.00
2023-05-19T20:23:43.663Z,100849.41
2023-05-19T20:26:13.068Z,100856.03
2023-05-19T20:28:41.868Z,100857.53
2023-05-19T20:31:09.894Z,100845.06
2023-05-19T20:33:37.680Z,100860.75
2023-05-19T20:36:06.954Z,100863.22
2023-05-19T20:38:34.887Z,100854.44
2023-05-19T20:41:02.726Z,100846.69
2023-05-19T20:43:32.386Z,100856.25
2023-05-19T20:46:01.661Z,100848.06
2023-05-19T20:48:29.605Z,100847.09
2023-05-19T20:50:57.764Z,100857.16
2023-05-19T20:53:25.560Z,100857.22
2023-05-19T20:55:53.353Z,100856.13
2023-05-19T20:58:21.454Z,100870.78
2023-05-19T21:00:54.251Z,100848.09
2023-05-19T21:03:23.615Z,100862.22
2023-05-19T21:05:51.809Z,100869.06
2023-05-19T21:08:19.904Z,100863.03
2023-05-19T21:10:47.888Z,100864.72
2023-05-19T21:13:15.747Z,100863.91
2023-05-19T21:15:43.435Z,100856.19
2023-05-19T21:18:12.534Z,100866.84
2023-05-19T21:20:40.466Z,100856.63
2023-05-19T21:23:08.274Z,100852.34
2023-05-19T21:25:36.199Z,100852.19
2023-05-19T21:28:03.951Z,100857.63
2023-05-19T21:30:32.032Z,100856.72
2023-05-19T21:32:59.905Z,100858.44
2023-05-19T21:35:27.659Z,100860.13
2023-05-19T21:37:55.965Z,100857.50
2023-05-19T21:40:25.330Z,100856.63
2023-05-19T21:42:53.092Z,100862.50
2023-05-19T21:45:20.929Z,100855.56
2023-05-19T21:47:48.597Z,100860.72
2023-05-19T21:50:17.587Z,100863.31
2023-05-19T21:52:45.487Z,100864.19
2023-05-19T21:55:13.429Z,100860.84
2023-05-19T21:57:41.181Z,100855.28
2023-05-19T22:00:13.172Z,100856.53
2023-05-19T22:02:41.228Z,100858.22
2023-05-19T22:05:09.306Z,100863.31
2023-05-19T22:07:37.551Z,100856.34
2023-05-19T22:10:05.832Z,100859.56
2023-05-19T22:12:33.513Z,100856.94
2023-05-19T22:15:01.429Z,100850.56
2023-05-19T22:17:32.608Z,100856.72
2023-05-19T22:20:00.386Z,100860.03
2023-05-19T22:22:28.087Z,100862.41
2023-05-19T22:24:55.815Z,100862.41
2023-05-19T22:27:23.526Z,100867.56
2023-05-19T22:29:51.340Z,100861.53
2023-05-19T22:32:19.650Z,100862.41
2023-05-19T22:34:47.533Z,100866.84
2023-05-19T22:37:15.286Z,100856.19
2023-05-19T22:39:43.101Z,100868.66
2023-05-19T22:42:11.241Z,100860.63
2023-05-19T22:44:39.057Z,100842.13
2023-05-19T22:47:06.728Z,100863.38
2023-05-19T22:49:34.382Z,100857.34
2023-05-19T22:52:02.108Z,100855.66
2023-05-19T22:54:30.196Z,100862.56
2023-05-19T22:56:58.042Z,100839.94
2023-05-19T22:59:25.877Z,100849.78
2023-05-19T23:01:53.599Z,100852.44
2023-05-19T23:04:21.850Z,100852.38
2023-05-19T23:06:50.500Z,100841.78
2023-05-19T23:09:18.431Z,100847.38
2023-05-19T23:11:46.319Z,100849.94
2023-05-19T23:14:14.109Z,100845.63
2023-05-19T23:16:41.794Z,100834.19
2023-05-19T23:19:09.469Z,100835.09
2023-05-19T23:21:37.238Z,100828.09
2023-05-19T23:24:05.779Z,100842.22
2023-05-19T23:26:33.535Z,100841.34
2023-05-19T23:29:02.668Z,100837.94
2023-05-19T23:31:30.734Z,100850.78
2023-05-19T23:33:58.429Z,100826.25
2023-05-19T23:36:26.314Z,100834.38
2023-05-19T23:38:53.916Z,100842.22
2023-05-19T23:41:21.570Z,100837.72
2023-05-19T23:43:49.367Z,100826.31
2023-05-19T23:46:17.127Z,100832.63
2023-05-19T23:48:44.982Z,100830.94
2023-05-19T23:51:12.672Z,100838.53
2023-05-19T23:53:40.448Z,100823.00
2023-05-19T23:56:08.441Z,100830.75
2023-05-19T23:58:36.211Z,100807.94
